Knoxville, TN

11:07 AM EDT on August 27, 2016 (GMT -0400)
Echo Valley | | Change Station

Elev 896 ft 35.91 °N, 84.06 °W | Updated 15 seconds ago

Partly Cloudy
Partly Cloudy
85.3 °F
Feels Like 90 °F
N
0.0
Wind Variable Wind from SSE
Gusts 0.0 mph

Today
High -- | Low -- °F
--% Chance of Precip.
Yesterday
High -- | Low -- °F
Precip. -- in
Pressure 30.11 in
Visibility 10.0 miles
Clouds Few 5000 ft
Heat Index 90 °F
Dew Point 71 °F
Humidity 62%
Rainfall 0.00 in
Snow Depth Not available.
7:04 AM 8:09 PM
Waning Crescent, 24% visible
METAR KTYS 271453Z VRB03KT 10SM FEW050 31/21 A3015 RMK AO2 SLP194 T03060211 51010
Pressure 30.11 in
Visibility 10.0 miles
Clouds Few 5000 ft
Heat Index 90 °F
Dew Point 71 °F
Humidity 62%
Rainfall 0.00 in
Snow Depth Not available.
7:04 AM 8:09 PM
Waning Crescent, 24% visible
METAR KTYS 271453Z VRB03KT 10SM FEW050 31/21 A3015 RMK AO2 SLP194 T03060211 51010

10-Day Weather Forecast

Almanac

Astronomy

Aug. 27, 2016 Rise Set
Actual Time
Civil Twilight
Nautical Twilight
Astronomical Twilight
Moon
Length of Visible Light
Length of Day
Tomorrow will be .
, % of the Moon is Illuminated

Today's Extremes

State Highs State Lows

Community

WunderPhotos

Upload Photos

1,935,354 photos uploaded!

WunderBlog® & News

Nearby

Air Quality

  Air Quality AQ Index Pollutant
Not available.

Snow Depth

Station Depth Elevation

Earthquake Activity

City Distance Mag. Time & Date
Minimum magnitude displayed is 2.5.

Coastal Water Temperatures

Place Temperature

Stations

Nearby Weather Stations

Station Location Temp. Windchill Dew Point Humidity Wind Precip. Elev Updated Type
                   

Watches & Warnings

There are currently no watches in effect.